CheckWX is a tool to help pilots better visualize weather data.  It is not intended as a substitute for an official pre-flight weather briefing.

03:54:44 UTC

KJRB METAR
Downtown Manhattan / Wall St Heliport
New York, New York, USA
Current

59 mins ago

KJRB 270256Z AUTO 25006KT 10SM BKN100 21/19 A2988 RMK AO2 RAB05E40 SLP119 P0000 60000 T02110189 50004
Observed
May-27 @ 02:56 UTC
Wind
  • 250° at 6 KTS
Visibility
10 SM
Flight Rules
VFR
Cloud Levels
  • Broken at 10,000' AGL
Temperature
21°C / 70°F
Dewpoint
19°C / 66°F
Humidity
88%
Altimeter
29.88" Hg
Pressure
1011.82 hPa
Current Rain
0.01"
Previous

2 hours ago

KJRB 270156Z AUTO 25005KT 10SM FEW120 21/19 A2989 RMK AO2 SLP122 T02060194
Observed
May-27 @ 01:56 UTC
Wind
  • 250° at 5 KTS
Visibility
10 SM
Flight Rules
VFR
Cloud Levels
  • Few at 12,000' AGL
Temperature
21°C / 70°F
Dewpoint
19°C / 66°F
Humidity
88%
Altimeter
29.89" Hg
Pressure
1012.22 hPa
Previous

3 hours ago

KJRB 270056Z AUTO 25004KT 10SM CLR 22/19 A2987 RMK AO2 SLP116 T02170194
Observed
May-27 @ 00:56 UTC
Wind
  • 250° at 4 KTS
Visibility
10 SM
Flight Rules
VFR
Cloud Levels
  • Clear skies
Temperature
22°C / 72°F
Dewpoint
19°C / 66°F
Humidity
83%
Altimeter
29.87" Hg
Pressure
1011.52 hPa